Luck, North Carolina
Current Conditions -  °F | °C
As of 6:54 AM on Friday 24 Oct 2014 (Local Time) from KAVL Reporting Station
Clear Clear  
Wind Chill: 37°   Ceiling: Unl
Heat Index: 42°   Visibility: 10mi
Dew Point: 38°   Wind: 8mph
Humidity: 85%   Direction: 350°N
Pressure: 30.09"   Gusts: NA
Location:  35.8037°N, 82.868°W
Report Text: KAVL 241054Z 35007KT 10SM CLR 06/03 A3009 RMK AO2 SLP184 T00560033
Loading
Personal Weather Stations






























Interactive Weather Map
Tropical Storm Tracking
New forecast layout! Learn more

10-Day Weather Forecast

Advertisements
Track Severe Weather on mobile